Flight Track Log - Related Links

Times and Time Zones

All times are in EDT time to prevent confusion due to time zone crossing. See the ASQ6078 flight status page for this flight to view local times or setup timezone preferences in your user account.

Time Position Orientation Groundspeed Altitude Reporting Facility
EDT Latitude Longitude Course Direction KTS MPH feet Rate Location/Type
Tue 06:47:43 PM 39.8833 -104.6000 90° East 175 201 6,400  Level Denver TRACON
Tue 06:48:43 PM 39.8833 -104.5333 90° East 216 249 8,100 1,619 Climbing Denver TRACON
Tue 06:49:49 PM 39.9167 -104.4333 66° East 263 303 9,800 1,400 Climbing Denver TRACON
Tue 06:50:43 PM 39.9333 -104.3500 75° East 297 342 10,900 1,103 Climbing Denver TRACON
Tue 06:51:16 PM 39.9439 -104.2836 78° East 322 371 11,400 1,021 Climbing Denver Center
Tue 06:52:17 PM 39.9703 -104.1592 74° East 358 412 12,500 1,065 Climbing Denver Center
Tue 06:53:20 PM 39.9869 -104.0111 82° East 382 440 13,600 1,065 Climbing Denver Center
Tue 06:54:21 PM 40.0053 -103.8664 81° East 407 468 14,700 976 Climbing Denver Center
Tue 06:55:23 PM 40.0267 -103.7233 79° East 410 472 15,600 1,016 Climbing Denver Center
Tue 06:56:25 PM 40.0528 -103.5758 77° East 415 478 16,800 1,790 Climbing Denver Center
Tue 06:57:27 PM 40.0806 -103.4050 78° East 409 471 19,300 2,129 Climbing Denver Center
Tue 06:58:29 PM 40.1036 -103.2636 78° East 396 456 21,200 1,694 Climbing Denver Center
Tue 06:59:31 PM 40.1264 -103.1272 78° East 383 441 22,800 1,258 Climbing Denver Center
Tue 07:00:33 PM 40.1489 -102.9819 79° East 402 463 23,800 1,016 Climbing Denver Center
Tue 07:01:35 PM 40.1714 -102.8308 79° East 419 482 24,900 1,073 Climbing Denver Center
Tue 07:02:36 PM 40.1983 -102.6628 78° East 432 497 26,000 1,024 Climbing Denver Center
Tue 07:03:38 PM 40.2219 -102.5125 78° East 440 506 27,000 1,016 Climbing Denver Center
Tue 07:04:40 PM 40.2481 -102.3344 79° East 447 514 28,100 1,016 Climbing Denver Center
Tue 07:05:42 PM 40.2711 -102.1825 79° East 446 513 29,100 968 Climbing Denver Center
Tue 07:06:44 PM 40.2939 -102.0292 79° East 450 518 30,100 1,016 Climbing Denver Center
Tue 07:07:46 PM 40.3222 -101.8486 78° East 453 521 31,200 1,024 Climbing Denver Center
Tue 07:08:47 PM 40.3450 -101.6894 79° East 463 533 32,200 1,024 Climbing Denver Center
Tue 07:09:49 PM 40.3714 -101.5031 79° East 468 539 33,300 1,016 Climbing Denver Center
Tue 07:10:51 PM 40.3972 -101.3419 78° East 473 544 34,300 823 Climbing Denver Center
Tue 07:11:53 PM 40.4328 -101.1567 76° East 473 544 35,000 339 Climbing Denver Center
Tue 07:12:55 PM 40.4653 -100.9919 75° East 488 562 35,000  Level Denver Center
Tue 07:14:09 PM 40.5042 -100.7933 75° East 506 582 35,000  Level Denver Center
Tue 07:15:11 PM 40.5489 -100.5633 76° East 515 593 35,000  Level Denver Center
Tue 07:16:13 PM 40.5819 -100.3919 76° East 512 589 35,000  Level Denver Center
Tue 07:17:15 PM 40.6200 -100.1925 76° East 507 583 35,000  Level Denver Center
Tue 07:18:17 PM 40.6525 -100.0217 76° East 505 581 35,000  Level Denver Center
Tue 07:19:18 PM 40.6892 -99.8244 76° East 506 582 35,000  Level Denver Center
Tue 07:20:20 PM 40.7150 -99.6828 76° East 499 574 35,000  Level Denver Center
Tue 07:21:22 PM 40.7539 -99.4686 76° East 501 577 35,000  Level Denver Center
Tue 07:22:24 PM 40.7864 -99.2931 76° East 497 572 35,000  Level Denver Center
Tue 07:23:26 PM 40.8192 -99.1125 76° East 501 577 35,000  Level Denver Center
Tue 07:24:13 PM 40.8458 -98.9639 77° East 500 575 35,000  Level Minneapolis Center
Tue 07:25:14 PM 40.8764 -98.7864 77° East 498 573 35,000  Level Minneapolis Center
Tue 07:26:16 PM 40.9081 -98.6078 77° East 499 574 35,000  Level Minneapolis Center
Tue 07:27:18 PM 40.9414 -98.4092 77° East 501 577 35,000  Level Minneapolis Center
Tue 07:28:20 PM 40.9722 -98.2333 77° East 496 571 35,000  Level Minneapolis Center
Tue 07:29:21 PM 41.0017 -98.0572 77° East 493 567 35,000  Level Minneapolis Center
Tue 07:30:23 PM 41.0311 -97.8828 77° East 489 563 35,000  Level Minneapolis Center
Tue 07:31:25 PM 41.0603 -97.7092 77° East 486 559 35,000  Level Minneapolis Center
Tue 07:32:26 PM 41.0947 -97.5008 78° East 483 556 35,000  Level Minneapolis Center
Tue 07:33:28 PM 41.1200 -97.3436 78° East 482 555 35,000  Level Minneapolis Center
Tue 07:34:30 PM 41.1481 -97.1700 78° East 482 555 35,000  Level Minneapolis Center
Tue 07:35:31 PM 41.1761 -96.9967 78° East 481 554 35,000  Level Minneapolis Center
Tue 07:36:33 PM 41.2083 -96.7886 78° East 479 551 35,000  Level Minneapolis Center
Tue 07:37:35 PM 41.2356 -96.6150 78° East 481 554 35,000  Level Minneapolis Center
Tue 07:38:36 PM 41.2631 -96.4411 78° East 480 552 35,000  Level Minneapolis Center
Tue 07:39:38 PM 41.2864 -96.2847 79° East 481 554 35,000  Level Minneapolis Center
Tue 07:40:40 PM 41.3169 -96.0764 79° East 479 551 35,000  Level Minneapolis Center
Tue 07:41:41 PM 41.3439 -95.9031 78° East 477 549 35,000  Level Minneapolis Center
Tue 07:42:43 PM 41.3683 -95.7303 79° East 476 548 35,000  Level Minneapolis Center
Tue 07:43:45 PM 41.3939 -95.5544 79° East 477 549 35,000  Level Minneapolis Center
Tue 07:44:46 PM 41.4189 -95.3822 79° East 476 548 35,000  Level Minneapolis Center
Tue 07:45:48 PM 41.4442 -95.2097 79° East 475 547 35,000  Level Minneapolis Center
Tue 07:46:50 PM 41.4683 -95.0378 79° East 473 544 35,000 -585 Level Minneapolis Center
Tue 07:47:51 PM 41.4914 -94.8678 80° East 468 539 33,800 -1,463 Descending Minneapolis Center
Tue 07:48:53 PM 41.5194 -94.6681 79° East 457 526 32,000 -1,597 Descending Minneapolis Center
Tue 07:49:55 PM 41.5417 -94.5011 80° East 456 525 30,500 -1,415 Descending Minneapolis Center
Tue 07:50:56 PM 41.5661 -94.3283 79° East 469 540 29,100 -732 Descending Minneapolis Center
Tue 07:51:58 PM 41.5892 -94.1517 80° East 475 547 29,000 -49 Descending Minneapolis Center
Tue 07:52:59 PM 41.6108 -93.9772 81° East 477 549 29,000  Level Minneapolis Center
Tue 07:54:01 PM 41.6342 -93.8025 80° East 479 551 29,000 -48 Level Minneapolis Center
Tue 07:55:03 PM 41.6572 -93.6253 80° East 481 554 28,900 -829 Descending Minneapolis Center
Tue 07:56:04 PM 41.6803 -93.4478 80° East 484 557 27,300 -1,951 Descending Minneapolis Center
Tue 07:57:06 PM 41.7061 -93.2367 81° East 484 557 24,900 -2,468 Descending Minneapolis Center
Tue 07:58:08 PM 41.7272 -93.0667 80° East 475 547 22,200 -2,683 Descending Minneapolis Center
Tue 07:59:09 PM 41.7475 -92.9031 81° East 458 527 19,400 -2,878 Descending Minneapolis Center
Tue 08:00:11 PM 41.7686 -92.7308 81° East 439 505 16,300 -2,952 Descending Minneapolis Center
Tue 08:01:13 PM 41.7903 -92.5633 80° East 427 491 13,300 -2,733 Descending Minneapolis Center
Tue 08:01:41 PM 41.7942 -92.4986 85° East 427 491 12,200 -1,467 Descending Chicago Center
Tue 08:02:43 PM 41.7983 -92.3550 88° East 399 459 11,100 -774 Descending Chicago Center
Tue 08:03:45 PM 41.8019 -92.2114 88° East 393 452 10,600 -435 Descending Chicago Center
Tue 08:04:47 PM 41.8053 -92.0658 88° East 395 455 10,200 -242 Descending Chicago Center
Tue 08:05:49 PM 41.8089 -91.8961 88° East 387 445 10,100 -871 Descending Chicago Center
Tue 08:06:51 PM 41.8125 -91.7858 87° East 321 369 8,400 -2,032 Descending Chicago Center
Tue 08:07:53 PM 41.8142 -91.6822 89° East 292 336 5,900 -2,081 Descending Chicago Center
Tue 08:08:55 PM 41.8264 -91.5881 80° East 292 336 4,100 -1,694 Descending Chicago Center
Tue 08:09:57 PM 41.8828 -91.5989 352° North 249 287 2,400 -1,306 Descending Chicago Center
Tue 08:10:59 PM 41.8853 -91.6625 273° West 172 198 1,400 -581 Descending Chicago Center
Tue 08:12:01 PM 41.8836 -91.7136 268° West 165 190 1,200 -194 Descending Chicago Center

Login

Don't have an account? Register now (free) for customized features, flight alerts, and more!